sensor_id;sensor_type;location;lat;lon;timestamp;temperature;humidity
68485;DHT22;55472;50.060;21.960;2023-04-24T00:01:39;11.70;56.80
68485;DHT22;55472;50.060;21.960;2023-04-24T00:04:06;11.70;56.90
68485;DHT22;55472;50.060;21.960;2023-04-24T00:06:37;11.70;56.80
68485;DHT22;55472;50.060;21.960;2023-04-24T00:09:04;11.70;57.00
68485;DHT22;55472;50.060;21.960;2023-04-24T00:11:30;11.70;56.90
68485;DHT22;55472;50.060;21.960;2023-04-24T00:13:57;11.70;56.90
68485;DHT22;55472;50.060;21.960;2023-04-24T00:16:23;11.60;56.90
68485;DHT22;55472;50.060;21.960;2023-04-24T00:18:49;11.60;56.70
68485;DHT22;55472;50.060;21.960;2023-04-24T00:21:15;11.60;56.60
68485;DHT22;55472;50.060;21.960;2023-04-24T00:23:43;11.60;56.50
68485;DHT22;55472;50.060;21.960;2023-04-24T00:26:10;11.60;56.50
68485;DHT22;55472;50.060;21.960;2023-04-24T00:28:36;11.60;56.40
68485;DHT22;55472;50.060;21.960;2023-04-24T00:31:02;11.60;56.60
68485;DHT22;55472;50.060;21.960;2023-04-24T00:33:28;11.50;56.80
68485;DHT22;55472;50.060;21.960;2023-04-24T00:35:54;11.50;56.80
68485;DHT22;55472;50.060;21.960;2023-04-24T00:38:20;11.50;56.60
68485;DHT22;55472;50.060;21.960;2023-04-24T00:40:48;11.50;56.70
68485;DHT22;55472;50.060;21.960;2023-04-24T00:43:16;11.40;56.90
68485;DHT22;55472;50.060;21.960;2023-04-24T00:45:43;11.30;57.60
68485;DHT22;55472;50.060;21.960;2023-04-24T00:48:09;11.30;57.50
68485;DHT22;55472;50.060;21.960;2023-04-24T00:50:36;11.20;57.80
68485;DHT22;55472;50.060;21.960;2023-04-24T00:53:02;11.20;57.80
68485;DHT22;55472;50.060;21.960;2023-04-24T00:55:29;11.10;57.90
68485;DHT22;55472;50.060;21.960;2023-04-24T00:57:55;11.00;58.10
68485;DHT22;55472;50.060;21.960;2023-04-24T01:00:21;11.00;58.50
68485;DHT22;55472;50.060;21.960;2023-04-24T01:02:48;10.90;58.80
68485;DHT22;55472;50.060;21.960;2023-04-24T01:05:15;10.90;59.10
68485;DHT22;55472;50.060;21.960;2023-04-24T01:07:44;10.80;59.20
68485;DHT22;55472;50.060;21.960;2023-04-24T01:10:13;10.80;59.00
68485;DHT22;55472;50.060;21.960;2023-04-24T01:12:40;10.80;59.20
68485;DHT22;55472;50.060;21.960;2023-04-24T01:15:07;10.70;59.20
68485;DHT22;55472;50.060;21.960;2023-04-24T01:17:34;10.80;59.00
68485;DHT22;55472;50.060;21.960;2023-04-24T01:20:01;10.80;60.10
68485;DHT22;55472;50.060;21.960;2023-04-24T01:22:29;10.70;60.20
68485;DHT22;55472;50.060;21.960;2023-04-24T01:24:56;10.70;60.30
68485;DHT22;55472;50.060;21.960;2023-04-24T01:27:22;10.60;61.30
68485;DHT22;55472;50.060;21.960;2023-04-24T01:29:48;10.60;61.70
68485;DHT22;55472;50.060;21.960;2023-04-24T01:32:17;10.60;62.00
68485;DHT22;55472;50.060;21.960;2023-04-24T01:34:44;10.50;62.20
68485;DHT22;55472;50.060;21.960;2023-04-24T01:37:11;10.50;61.90
68485;DHT22;55472;50.060;21.960;2023-04-24T01:39:37;10.40;62.80
68485;DHT22;55472;50.060;21.960;2023-04-24T01:42:04;10.30;62.70
68485;DHT22;55472;50.060;21.960;2023-04-24T01:44:31;10.30;62.60
68485;DHT22;55472;50.060;21.960;2023-04-24T01:46:57;10.20;63.00
68485;DHT22;55472;50.060;21.960;2023-04-24T01:49:24;10.20;63.60
68485;DHT22;55472;50.060;21.960;2023-04-24T01:51:50;10.10;62.90
68485;DHT22;55472;50.060;21.960;2023-04-24T01:54:16;10.10;64.20
68485;DHT22;55472;50.060;21.960;2023-04-24T01:56:42;10.00;63.20
68485;DHT22;55472;50.060;21.960;2023-04-24T01:59:11;10.00;64.60
68485;DHT22;55472;50.060;21.960;2023-04-24T02:01:38;9.90;64.80
68485;DHT22;55472;50.060;21.960;2023-04-24T02:04:05;9.90;65.40
68485;DHT22;55472;50.060;21.960;2023-04-24T02:06:32;9.90;65.50
68485;DHT22;55472;50.060;21.960;2023-04-24T02:08:59;9.80;66.40
68485;DHT22;55472;50.060;21.960;2023-04-24T02:11:26;9.80;65.80
68485;DHT22;55472;50.060;21.960;2023-04-24T02:13:52;9.90;65.60
68485;DHT22;55472;50.060;21.960;2023-04-24T02:16:18;9.90;65.80
68485;DHT22;55472;50.060;21.960;2023-04-24T02:18:45;9.90;64.40
68485;DHT22;55472;50.060;21.960;2023-04-24T02:21:11;10.00;63.50
68485;DHT22;55472;50.060;21.960;2023-04-24T02:23:37;10.00;63.00
68485;DHT22;55472;50.060;21.960;2023-04-24T02:26:03;10.10;62.70
68485;DHT22;55472;50.060;21.960;2023-04-24T02:28:30;10.20;62.80
68485;DHT22;55472;50.060;21.960;2023-04-24T02:30:55;10.20;62.60
68485;DHT22;55472;50.060;21.960;2023-04-24T02:33:22;10.20;62.00
68485;DHT22;55472;50.060;21.960;2023-04-24T02:35:48;10.30;62.30
68485;DHT22;55472;50.060;21.960;2023-04-24T02:38:14;10.30;62.70
68485;DHT22;55472;50.060;21.960;2023-04-24T02:40:40;10.20;62.90
68485;DHT22;55472;50.060;21.960;2023-04-24T02:43:06;10.20;63.50
68485;DHT22;55472;50.060;21.960;2023-04-24T02:45:32;10.20;65.30
68485;DHT22;55472;50.060;21.960;2023-04-24T02:48:00;10.20;64.60
68485;DHT22;55472;50.060;21.960;2023-04-24T02:50:26;10.20;64.30
68485;DHT22;55472;50.060;21.960;2023-04-24T02:52:52;10.20;63.20
68485;DHT22;55472;50.060;21.960;2023-04-24T02:55:18;10.10;64.50
68485;DHT22;55472;50.060;21.960;2023-04-24T02:57:45;10.10;65.20
68485;DHT22;55472;50.060;21.960;2023-04-24T03:00:11;10.10;65.50
68485;DHT22;55472;50.060;21.960;2023-04-24T03:02:39;10.00;63.90
68485;DHT22;55472;50.060;21.960;2023-04-24T03:05:05;10.00;64.00
68485;DHT22;55472;50.060;21.960;2023-04-24T03:07:32;9.90;64.60
68485;DHT22;55472;50.060;21.960;2023-04-24T03:09:58;9.90;65.40
68485;DHT22;55472;50.060;21.960;2023-04-24T03:12:24;9.90;65.80
68485;DHT22;55472;50.060;21.960;2023-04-24T03:14:50;9.90;66.50
68485;DHT22;55472;50.060;21.960;2023-04-24T03:17:16;9.80;66.40
68485;DHT22;55472;50.060;21.960;2023-04-24T03:19:42;9.80;65.80
68485;DHT22;55472;50.060;21.960;2023-04-24T03:22:08;9.80;66.40
68485;DHT22;55472;50.060;21.960;2023-04-24T03:24:35;9.80;67.00
68485;DHT22;55472;50.060;21.960;2023-04-24T03:27:01;9.80;66.20
68485;DHT22;55472;50.060;21.960;2023-04-24T03:29:27;9.80;64.80
68485;DHT22;55472;50.060;21.960;2023-04-24T03:31:53;9.70;65.40
68485;DHT22;55472;50.060;21.960;2023-04-24T03:34:19;9.70;65.20
68485;DHT22;55472;50.060;21.960;2023-04-24T03:36:45;9.70;65.60
68485;DHT22;55472;50.060;21.960;2023-04-24T03:39:13;9.60;66.70
68485;DHT22;55472;50.060;21.960;2023-04-24T03:41:39;9.60;67.60
68485;DHT22;55472;50.060;21.960;2023-04-24T03:44:05;9.60;68.20
68485;DHT22;55472;50.060;21.960;2023-04-24T03:46:31;9.60;67.90
68485;DHT22;55472;50.060;21.960;2023-04-24T03:48:57;9.60;67.30
68485;DHT22;55472;50.060;21.960;2023-04-24T03:51:24;9.60;67.30
68485;DHT22;55472;50.060;21.960;2023-04-24T03:53:50;9.60;67.90
68485;DHT22;55472;50.060;21.960;2023-04-24T03:56:17;9.70;67.40
68485;DHT22;55472;50.060;21.960;2023-04-24T03:58:43;9.70;67.90
68485;DHT22;55472;50.060;21.960;2023-04-24T04:01:09;9.70;65.60
68485;DHT22;55472;50.060;21.960;2023-04-24T04:03:37;9.70;66.10
68485;DHT22;55472;50.060;21.960;2023-04-24T04:06:03;9.80;65.30
68485;DHT22;55472;50.060;21.960;2023-04-24T04:08:29;9.80;64.80
68485;DHT22;55472;50.060;21.960;2023-04-24T04:10:56;9.90;66.90
68485;DHT22;55472;50.060;21.960;2023-04-24T04:13:22;9.90;66.00
68485;DHT22;55472;50.060;21.960;2023-04-24T04:15:48;9.90;65.50
68485;DHT22;55472;50.060;21.960;2023-04-24T04:18:14;9.90;65.60
68485;DHT22;55472;50.060;21.960;2023-04-24T04:20:41;10.00;64.70
68485;DHT22;55472;50.060;21.960;2023-04-24T04:23:07;10.00;64.80
68485;DHT22;55472;50.060;21.960;2023-04-24T04:25:33;10.10;64.80
68485;DHT22;55472;50.060;21.960;2023-04-24T04:27:59;10.20;64.80
68485;DHT22;55472;50.060;21.960;2023-04-24T04:30:26;10.30;66.90
68485;DHT22;55472;50.060;21.960;2023-04-24T04:32:52;10.40;67.50
68485;DHT22;55472;50.060;21.960;2023-04-24T04:35:18;10.40;65.20
68485;DHT22;55472;50.060;21.960;2023-04-24T04:37:44;10.50;66.80
68485;DHT22;55472;50.060;21.960;2023-04-24T04:40:11;10.60;66.60
68485;DHT22;55472;50.060;21.960;2023-04-24T04:42:37;10.70;64.80
68485;DHT22;55472;50.060;21.960;2023-04-24T04:45:08;10.70;64.60
68485;DHT22;55472;50.060;21.960;2023-04-24T04:47:35;10.80;64.50
68485;DHT22;55472;50.060;21.960;2023-04-24T04:50:01;11.00;62.60
68485;DHT22;55472;50.060;21.960;2023-04-24T04:52:29;11.10;62.10
68485;DHT22;55472;50.060;21.960;2023-04-24T04:54:56;11.20;61.90
68485;DHT22;55472;50.060;21.960;2023-04-24T04:57:21;11.30;61.00
68485;DHT22;55472;50.060;21.960;2023-04-24T04:59:48;11.40;60.10
68485;DHT22;55472;50.060;21.960;2023-04-24T05:02:14;11.60;60.10
68485;DHT22;55472;50.060;21.960;2023-04-24T05:04:40;11.70;59.60
68485;DHT22;55472;50.060;21.960;2023-04-24T05:07:06;11.80;59.80
68485;DHT22;55472;50.060;21.960;2023-04-24T05:09:33;11.90;58.40
68485;DHT22;55472;50.060;21.960;2023-04-24T05:11:59;12.10;58.90
68485;DHT22;55472;50.060;21.960;2023-04-24T05:14:26;12.20;58.40
68485;DHT22;55472;50.060;21.960;2023-04-24T05:16:52;12.30;57.60
68485;DHT22;55472;50.060;21.960;2023-04-24T05:19:18;12.40;57.70
68485;DHT22;55472;50.060;21.960;2023-04-24T05:21:44;12.50;57.70
68485;DHT22;55472;50.060;21.960;2023-04-24T05:24:11;12.60;57.90
68485;DHT22;55472;50.060;21.960;2023-04-24T05:26:37;12.70;58.10
68485;DHT22;55472;50.060;21.960;2023-04-24T05:29:03;12.80;58.00
68485;DHT22;55472;50.060;21.960;2023-04-24T05:31:29;13.00;57.80
68485;DHT22;55472;50.060;21.960;2023-04-24T05:33:56;13.10;57.70
68485;DHT22;55472;50.060;21.960;2023-04-24T05:36:22;13.20;57.10
68485;DHT22;55472;50.060;21.960;2023-04-24T05:38:49;13.40;56.40
68485;DHT22;55472;50.060;21.960;2023-04-24T05:41:15;13.50;55.70
68485;DHT22;55472;50.060;21.960;2023-04-24T05:43:41;13.60;55.90
68485;DHT22;55472;50.060;21.960;2023-04-24T05:46:07;13.80;54.30
68485;DHT22;55472;50.060;21.960;2023-04-24T05:48:33;13.90;53.50
68485;DHT22;55472;50.060;21.960;2023-04-24T05:51:00;14.00;53.20
68485;DHT22;55472;50.060;21.960;2023-04-24T05:53:26;14.10;52.80
68485;DHT22;55472;50.060;21.960;2023-04-24T05:55:52;14.20;52.60
68485;DHT22;55472;50.060;21.960;2023-04-24T05:58:19;14.30;52.50
68485;DHT22;55472;50.060;21.960;2023-04-24T06:00:45;14.40;52.40
68485;DHT22;55472;50.060;21.960;2023-04-24T06:03:12;14.60;52.50
68485;DHT22;55472;50.060;21.960;2023-04-24T06:05:38;14.70;51.80
68485;DHT22;55472;50.060;21.960;2023-04-24T06:08:05;14.80;51.80
68485;DHT22;55472;50.060;21.960;2023-04-24T06:10:31;14.90;51.90
68485;DHT22;55472;50.060;21.960;2023-04-24T06:12:58;15.10;51.70
68485;DHT22;55472;50.060;21.960;2023-04-24T06:15:28;15.20;51.10
68485;DHT22;55472;50.060;21.960;2023-04-24T06:17:56;15.30;50.40
68485;DHT22;55472;50.060;21.960;2023-04-24T06:20:23;15.50;50.80
68485;DHT22;55472;50.060;21.960;2023-04-24T06:22:49;15.60;50.20
68485;DHT22;55472;50.060;21.960;2023-04-24T06:25:16;15.80;50.40
68485;DHT22;55472;50.060;21.960;2023-04-24T06:27:42;15.90;49.60
68485;DHT22;55472;50.060;21.960;2023-04-24T06:30:08;16.20;48.80
68485;DHT22;55472;50.060;21.960;2023-04-24T06:32:35;16.30;46.80
68485;DHT22;55472;50.060;21.960;2023-04-24T06:35:01;16.40;46.80
68485;DHT22;55472;50.060;21.960;2023-04-24T06:37:27;16.50;47.70
68485;DHT22;55472;50.060;21.960;2023-04-24T06:39:54;16.70;46.60
68485;DHT22;55472;50.060;21.960;2023-04-24T06:42:20;16.80;46.20
68485;DHT22;55472;50.060;21.960;2023-04-24T06:47:14;17.50;44.90
68485;DHT22;55472;50.060;21.960;2023-04-24T06:49:42;17.20;45.00
68485;DHT22;55472;50.060;21.960;2023-04-24T06:52:08;17.30;44.80
68485;DHT22;55472;50.060;21.960;2023-04-24T06:54:35;17.40;45.20
68485;DHT22;55472;50.060;21.960;2023-04-24T06:57:01;17.50;43.80
68485;DHT22;55472;50.060;21.960;2023-04-24T06:59:28;17.50;43.20
68485;DHT22;55472;50.060;21.960;2023-04-24T07:01:56;17.50;43.20
68485;DHT22;55472;50.060;21.960;2023-04-24T07:04:22;17.60;43.60
68485;DHT22;55472;50.060;21.960;2023-04-24T07:06:48;17.60;43.40
68485;DHT22;55472;50.060;21.960;2023-04-24T07:09:15;17.60;43.20
68485;DHT22;55472;50.060;21.960;2023-04-24T07:11:45;17.70;42.80
68485;DHT22;55472;50.060;21.960;2023-04-24T07:14:11;17.80;43.30
68485;DHT22;55472;50.060;21.960;2023-04-24T07:16:38;17.80;43.00
68485;DHT22;55472;50.060;21.960;2023-04-24T07:19:04;17.90;43.70
68485;DHT22;55472;50.060;21.960;2023-04-24T07:21:31;18.00;44.20
68485;DHT22;55472;50.060;21.960;2023-04-24T07:23:58;18.20;43.10
68485;DHT22;55472;50.060;21.960;2023-04-24T07:26:26;18.40;43.20
68485;DHT22;55472;50.060;21.960;2023-04-24T07:28:53;18.60;43.00
68485;DHT22;55472;50.060;21.960;2023-04-24T07:31:19;18.80;41.90
68485;DHT22;55472;50.060;21.960;2023-04-24T07:33:46;19.00;43.00
68485;DHT22;55472;50.060;21.960;2023-04-24T07:36:13;19.10;41.90
68485;DHT22;55472;50.060;21.960;2023-04-24T07:38:43;19.30;41.80
68485;DHT22;55472;50.060;21.960;2023-04-24T07:41:09;19.40;41.90
68485;DHT22;55472;50.060;21.960;2023-04-24T07:43:35;19.40;41.20
68485;DHT22;55472;50.060;21.960;2023-04-24T07:46:01;19.60;40.40
68485;DHT22;55472;50.060;21.960;2023-04-24T07:48:27;19.70;41.00
68485;DHT22;55472;50.060;21.960;2023-04-24T07:50:54;19.80;41.70
68485;DHT22;55472;50.060;21.960;2023-04-24T07:53:20;20.00;40.50
68485;DHT22;55472;50.060;21.960;2023-04-24T07:55:46;20.10;40.40
68485;DHT22;55472;50.060;21.960;2023-04-24T07:58:12;20.30;40.10
68485;DHT22;55472;50.060;21.960;2023-04-24T08:00:38;20.50;40.10
68485;DHT22;55472;50.060;21.960;2023-04-24T08:03:04;20.60;39.90
68485;DHT22;55472;50.060;21.960;2023-04-24T08:05:31;20.70;39.70
68485;DHT22;55472;50.060;21.960;2023-04-24T08:07:57;20.80;39.80
68485;DHT22;55472;50.060;21.960;2023-04-24T08:10:23;21.00;40.40
68485;DHT22;55472;50.060;21.960;2023-04-24T08:12:49;21.20;38.80
68485;DHT22;55472;50.060;21.960;2023-04-24T08:15:16;21.40;39.30
68485;DHT22;55472;50.060;21.960;2023-04-24T08:17:42;21.60;37.60
68485;DHT22;55472;50.060;21.960;2023-04-24T08:20:11;21.70;37.70
68485;DHT22;55472;50.060;21.960;2023-04-24T08:22:41;21.90;37.90
68485;DHT22;55472;50.060;21.960;2023-04-24T08:25:09;22.00;37.30
68485;DHT22;55472;50.060;21.960;2023-04-24T08:27:36;22.10;37.20
68485;DHT22;55472;50.060;21.960;2023-04-24T08:30:04;22.10;36.50
68485;DHT22;55472;50.060;21.960;2023-04-24T08:32:31;22.20;36.00
68485;DHT22;55472;50.060;21.960;2023-04-24T08:34:59;22.40;36.30
68485;DHT22;55472;50.060;21.960;2023-04-24T08:37:26;22.60;36.00
68485;DHT22;55472;50.060;21.960;2023-04-24T08:39:53;22.90;35.00
68485;DHT22;55472;50.060;21.960;2023-04-24T08:42:20;23.30;35.50
68485;DHT22;55472;50.060;21.960;2023-04-24T08:44:48;24.00;35.10
68485;DHT22;55472;50.060;21.960;2023-04-24T08:47:16;25.00;32.80
68485;DHT22;55472;50.060;21.960;2023-04-24T08:49:43;26.30;31.30
68485;DHT22;55472;50.060;21.960;2023-04-24T08:52:12;27.90;31.00
68485;DHT22;55472;50.060;21.960;2023-04-24T08:54:42;29.40;28.70
68485;DHT22;55472;50.060;21.960;2023-04-24T08:57:11;30.70;26.40
68485;DHT22;55472;50.060;21.960;2023-04-24T08:59:43;31.30;26.30
68485;DHT22;55472;50.060;21.960;2023-04-24T09:02:19;32.40;25.60
68485;DHT22;55472;50.060;21.960;2023-04-24T09:04:47;33.10;24.20
68485;DHT22;55472;50.060;21.960;2023-04-24T09:07:15;33.70;24.30
68485;DHT22;55472;50.060;21.960;2023-04-24T09:09:44;34.30;23.50
68485;DHT22;55472;50.060;21.960;2023-04-24T09:12:10;34.70;23.20
68485;DHT22;55472;50.060;21.960;2023-04-24T09:14:37;35.60;22.90
68485;DHT22;55472;50.060;21.960;2023-04-24T09:17:11;36.10;22.10
68485;DHT22;55472;50.060;21.960;2023-04-24T09:19:38;36.30;21.90
68485;DHT22;55472;50.060;21.960;2023-04-24T09:22:07;36.30;22.00
68485;DHT22;55472;50.060;21.960;2023-04-24T09:24:34;36.10;22.40
68485;DHT22;55472;50.060;21.960;2023-04-24T09:27:01;36.80;21.50
68485;DHT22;55472;50.060;21.960;2023-04-24T09:29:28;37.60;21.40
68485;DHT22;55472;50.060;21.960;2023-04-24T09:31:54;38.50;20.90
68485;DHT22;55472;50.060;21.960;2023-04-24T09:34:25;38.30;20.20
68485;DHT22;55472;50.060;21.960;2023-04-24T09:36:52;36.40;21.40
68485;DHT22;55472;50.060;21.960;2023-04-24T09:39:22;35.70;21.40
68485;DHT22;55472;50.060;21.960;2023-04-24T09:41:55;34.40;21.50
68485;DHT22;55472;50.060;21.960;2023-04-24T09:44:27;32.60;23.60
68485;DHT22;55472;50.060;21.960;2023-04-24T09:46:55;31.60;24.50
68485;DHT22;55472;50.060;21.960;2023-04-24T09:49:26;30.50;25.70
68485;DHT22;55472;50.060;21.960;2023-04-24T09:52:09;29.90;25.80
68485;DHT22;55472;50.060;21.960;2023-04-24T09:54:36;29.90;25.20
68485;DHT22;55472;50.060;21.960;2023-04-24T09:57:03;29.90;25.20
68485;DHT22;55472;50.060;21.960;2023-04-24T09:59:29;30.20;25.10
68485;DHT22;55472;50.060;21.960;2023-04-24T10:01:56;30.60;24.60
68485;DHT22;55472;50.060;21.960;2023-04-24T10:04:26;30.70;24.20
68485;DHT22;55472;50.060;21.960;2023-04-24T10:06:54;30.30;24.60
68485;DHT22;55472;50.060;21.960;2023-04-24T10:09:23;30.00;25.20
68485;DHT22;55472;50.060;21.960;2023-04-24T10:11:52;29.20;25.10
68485;DHT22;55472;50.060;21.960;2023-04-24T10:14:23;28.40;26.10
68485;DHT22;55472;50.060;21.960;2023-04-24T10:16:52;27.60;26.90
68485;DHT22;55472;50.060;21.960;2023-04-24T10:19:20;26.90;26.00
68485;DHT22;55472;50.060;21.960;2023-04-24T10:21:46;26.50;27.10
68485;DHT22;55472;50.060;21.960;2023-04-24T10:24:14;26.10;27.80
68485;DHT22;55472;50.060;21.960;2023-04-24T10:26:45;26.00;28.60
68485;DHT22;55472;50.060;21.960;2023-04-24T10:29:16;25.90;29.00
68485;DHT22;55472;50.060;21.960;2023-04-24T10:31:43;25.90;27.70
68485;DHT22;55472;50.060;21.960;2023-04-24T10:34:11;26.00;28.40
68485;DHT22;55472;50.060;21.960;2023-04-24T10:36:42;26.00;27.20
68485;DHT22;55472;50.060;21.960;2023-04-24T10:39:13;26.00;27.80
68485;DHT22;55472;50.060;21.960;2023-04-24T10:41:40;25.60;28.00
68485;DHT22;55472;50.060;21.960;2023-04-24T10:44:14;25.80;28.40
68485;DHT22;55472;50.060;21.960;2023-04-24T10:46:46;25.90;28.60
68485;DHT22;55472;50.060;21.960;2023-04-24T10:49:15;26.20;27.90
68485;DHT22;55472;50.060;21.960;2023-04-24T10:51:51;26.30;28.00
68485;DHT22;55472;50.060;21.960;2023-04-24T10:54:44;26.10;27.90
68485;DHT22;55472;50.060;21.960;2023-04-24T10:59:47;25.60;29.10
68485;DHT22;55472;50.060;21.960;2023-04-24T11:02:15;25.70;29.10
68485;DHT22;55472;50.060;21.960;2023-04-24T11:04:42;25.70;28.40
68485;DHT22;55472;50.060;21.960;2023-04-24T11:07:10;25.60;28.50
68485;DHT22;55472;50.060;21.960;2023-04-24T11:09:37;25.80;28.80
68485;DHT22;55472;50.060;21.960;2023-04-24T11:12:07;26.00;28.10
68485;DHT22;55472;50.060;21.960;2023-04-24T11:17:34;25.80;27.70
68485;DHT22;55472;50.060;21.960;2023-04-24T11:20:04;25.70;27.30
68485;DHT22;55472;50.060;21.960;2023-04-24T11:22:36;25.40;28.00
68485;DHT22;55472;50.060;21.960;2023-04-24T11:25:04;25.20;28.90
68485;DHT22;55472;50.060;21.960;2023-04-24T11:27:32;25.00;29.10
68485;DHT22;55472;50.060;21.960;2023-04-24T11:30:06;25.00;28.70
68485;DHT22;55472;50.060;21.960;2023-04-24T11:37:38;24.80;28.40
68485;DHT22;55472;50.060;21.960;2023-04-24T11:40:07;24.60;28.20
68485;DHT22;55472;50.060;21.960;2023-04-24T11:42:35;24.40;28.50
68485;DHT22;55472;50.060;21.960;2023-04-24T11:45:17;24.50;29.90
68485;DHT22;55472;50.060;21.960;2023-04-24T11:47:46;24.60;28.80
68485;DHT22;55472;50.060;21.960;2023-04-24T11:50:15;24.60;29.50
68485;DHT22;55472;50.060;21.960;2023-04-24T11:52:47;24.60;29.40
68485;DHT22;55472;50.060;21.960;2023-04-24T11:57:43;24.40;28.40
68485;DHT22;55472;50.060;21.960;2023-04-24T12:00:19;24.30;29.00
68485;DHT22;55472;50.060;21.960;2023-04-24T12:02:47;24.40;29.30
68485;DHT22;55472;50.060;21.960;2023-04-24T12:05:21;24.40;29.10
68485;DHT22;55472;50.060;21.960;2023-04-24T12:07:48;24.50;28.80
68485;DHT22;55472;50.060;21.960;2023-04-24T12:10:20;24.50;29.10
68485;DHT22;55472;50.060;21.960;2023-04-24T12:12:47;24.60;29.00
68485;DHT22;55472;50.060;21.960;2023-04-24T12:15:16;24.60;28.70
68485;DHT22;55472;50.060;21.960;2023-04-24T12:17:43;24.60;29.20
68485;DHT22;55472;50.060;21.960;2023-04-24T12:20:11;24.70;28.10
68485;DHT22;55472;50.060;21.960;2023-04-24T12:22:55;24.50;28.50
68485;DHT22;55472;50.060;21.960;2023-04-24T12:25:24;24.40;28.50
68485;DHT22;55472;50.060;21.960;2023-04-24T12:28:14;24.40;29.20
68485;DHT22;55472;50.060;21.960;2023-04-24T12:30:49;24.50;29.40
68485;DHT22;55472;50.060;21.960;2023-04-24T12:33:19;24.50;28.40
68485;DHT22;55472;50.060;21.960;2023-04-24T12:35:48;24.50;28.60
68485;DHT22;55472;50.060;21.960;2023-04-24T12:38:22;24.40;28.50
68485;DHT22;55472;50.060;21.960;2023-04-24T12:41:04;24.20;29.50
68485;DHT22;55472;50.060;21.960;2023-04-24T12:43:37;23.90;28.80
68485;DHT22;55472;50.060;21.960;2023-04-24T12:46:04;23.90;28.80
68485;DHT22;55472;50.060;21.960;2023-04-24T12:48:30;23.90;29.20
68485;DHT22;55472;50.060;21.960;2023-04-24T12:50:58;23.90;28.70
68485;DHT22;55472;50.060;21.960;2023-04-24T12:53:27;24.00;29.70
68485;DHT22;55472;50.060;21.960;2023-04-24T12:55:56;24.10;29.30
68485;DHT22;55472;50.060;21.960;2023-04-24T12:58:22;24.30;29.60
68485;DHT22;55472;50.060;21.960;2023-04-24T13:00:48;24.50;29.50
68485;DHT22;55472;50.060;21.960;2023-04-24T13:03:14;24.60;28.90
68485;DHT22;55472;50.060;21.960;2023-04-24T13:05:42;24.70;29.40
68485;DHT22;55472;50.060;21.960;2023-04-24T13:08:09;24.80;28.70
68485;DHT22;55472;50.060;21.960;2023-04-24T13:10:35;24.60;28.20
68485;DHT22;55472;50.060;21.960;2023-04-24T13:13:02;24.30;28.90
68485;DHT22;55472;50.060;21.960;2023-04-24T13:15:29;24.50;28.70
68485;DHT22;55472;50.060;21.960;2023-04-24T13:17:55;24.60;27.90
68485;DHT22;55472;50.060;21.960;2023-04-24T13:20:21;24.50;28.00
68485;DHT22;55472;50.060;21.960;2023-04-24T13:22:47;24.40;28.50
68485;DHT22;55472;50.060;21.960;2023-04-24T13:25:13;24.30;28.00
68485;DHT22;55472;50.060;21.960;2023-04-24T13:27:42;24.00;28.50
68485;DHT22;55472;50.060;21.960;2023-04-24T13:30:09;23.80;29.40
68485;DHT22;55472;50.060;21.960;2023-04-24T13:32:36;23.50;30.00
68485;DHT22;55472;50.060;21.960;2023-04-24T13:35:02;23.30;30.30
68485;DHT22;55472;50.060;21.960;2023-04-24T13:37:28;23.20;31.10
68485;DHT22;55472;50.060;21.960;2023-04-24T13:39:54;23.10;30.00
68485;DHT22;55472;50.060;21.960;2023-04-24T13:42:20;23.10;30.70
68485;DHT22;55472;50.060;21.960;2023-04-24T13:44:47;23.10;30.70
68485;DHT22;55472;50.060;21.960;2023-04-24T13:47:13;23.00;29.70
68485;DHT22;55472;50.060;21.960;2023-04-24T13:49:39;22.90;30.80
68485;DHT22;55472;50.060;21.960;2023-04-24T13:52:05;22.80;31.20
68485;DHT22;55472;50.060;21.960;2023-04-24T13:54:31;22.90;31.40
68485;DHT22;55472;50.060;21.960;2023-04-24T13:56:58;23.00;30.40
68485;DHT22;55472;50.060;21.960;2023-04-24T13:59:24;23.00;29.40
68485;DHT22;55472;50.060;21.960;2023-04-24T14:01:51;22.90;29.90
68485;DHT22;55472;50.060;21.960;2023-04-24T14:04:17;22.80;30.00
68485;DHT22;55472;50.060;21.960;2023-04-24T14:06:43;22.70;29.80
68485;DHT22;55472;50.060;21.960;2023-04-24T14:09:10;22.70;30.30
68485;DHT22;55472;50.060;21.960;2023-04-24T14:11:36;22.60;30.20
68485;DHT22;55472;50.060;21.960;2023-04-24T14:14:02;22.50;30.60
68485;DHT22;55472;50.060;21.960;2023-04-24T14:16:28;22.40;30.10
68485;DHT22;55472;50.060;21.960;2023-04-24T14:18:56;22.40;30.70
68485;DHT22;55472;50.060;21.960;2023-04-24T14:21:22;22.30;31.20
68485;DHT22;55472;50.060;21.960;2023-04-24T14:23:48;22.40;31.40
68485;DHT22;55472;50.060;21.960;2023-04-24T14:26:14;22.40;31.00
68485;DHT22;55472;50.060;21.960;2023-04-24T14:28:40;22.50;31.80
68485;DHT22;55472;50.060;21.960;2023-04-24T14:31:06;22.50;32.00
68485;DHT22;55472;50.060;21.960;2023-04-24T14:33:34;22.40;32.50
68485;DHT22;55472;50.060;21.960;2023-04-24T14:36:02;22.40;32.40
68485;DHT22;55472;50.060;21.960;2023-04-24T14:38:30;22.30;32.30
68485;DHT22;55472;50.060;21.960;2023-04-24T14:40:57;22.20;32.70
68485;DHT22;55472;50.060;21.960;2023-04-24T14:43:23;22.10;32.30
68485;DHT22;55472;50.060;21.960;2023-04-24T14:45:49;22.00;32.20
68485;DHT22;55472;50.060;21.960;2023-04-24T14:48:15;21.90;31.10
68485;DHT22;55472;50.060;21.960;2023-04-24T14:50:43;21.80;31.50
68485;DHT22;55472;50.060;21.960;2023-04-24T14:53:09;21.70;31.20
68485;DHT22;55472;50.060;21.960;2023-04-24T14:55:35;21.60;31.90
68485;DHT22;55472;50.060;21.960;2023-04-24T14:58:02;21.50;31.40
68485;DHT22;55472;50.060;21.960;2023-04-24T15:00:29;21.40;31.90
68485;DHT22;55472;50.060;21.960;2023-04-24T15:02:56;21.40;31.50
68485;DHT22;55472;50.060;21.960;2023-04-24T15:05:22;21.30;31.70
68485;DHT22;55472;50.060;21.960;2023-04-24T15:07:48;21.20;32.30
68485;DHT22;55472;50.060;21.960;2023-04-24T15:10:14;21.20;32.40
68485;DHT22;55472;50.060;21.960;2023-04-24T15:12:40;21.10;33.10
68485;DHT22;55472;50.060;21.960;2023-04-24T15:15:08;21.20;33.90
68485;DHT22;55472;50.060;21.960;2023-04-24T15:17:34;21.20;34.60
68485;DHT22;55472;50.060;21.960;2023-04-24T15:20:01;21.20;37.50
68485;DHT22;55472;50.060;21.960;2023-04-24T15:22:28;21.10;39.10
68485;DHT22;55472;50.060;21.960;2023-04-24T15:24:54;21.00;40.00
68485;DHT22;55472;50.060;21.960;2023-04-24T15:27:21;20.90;40.50
68485;DHT22;55472;50.060;21.960;2023-04-24T15:29:47;20.80;41.20
68485;DHT22;55472;50.060;21.960;2023-04-24T15:32:17;20.60;41.60
68485;DHT22;55472;50.060;21.960;2023-04-24T15:34:43;20.50;42.00